TAF Text Data
IDs:
Format:
Raw Decoded Include METAR

Data at: 2219 UTC 01 Dec 2021

KRSW 011739Z 0118/0218 11007KT P6SM SCT050 SCT250
  FM012000 23005KT P6SM FEW040 SCT250
  FM020100 VRB03KT P6SM FEW250
  FM021500 02006KT P6SM SKC